Highland, OH (45132)

9:43 AM EDT on September 02, 2014 (GMT -0400)
Hillsboro | Change Station
CLOSE
Current Station
Personal Weather Station
Location: Hillsboro, OH
Elevation: 1102 ft
Nearby Weather Stations

Elev 1102 ft 39.21 °N, 83.60 °W | Updated 46 seconds ago

Thunderstorm
Thunderstorm
65.8 °F
Feels Like 65.8 °F
N
5.8
Wind Variable Wind from South
Gusts 5.8 mph

Today
High -- | Low -- °F
--% Chance of Precip.
Yesterday
High -- | Low -- °F
Precip. -- in
7:03 AM 8:03 PM
First Quarter, 51% visible
Pressure 29.93 in
Visibility 10.0 miles
Clouds Few 5000 ft
Few 9000 ft
Scattered Clouds 11000 ft
Dew Point 66 °F
Humidity 99%
Rainfall 0.11 in
Snow Depth Not available.
UV 2 out of 12
Pollen 2.80 out of 12
Air Quality Not available.
Flu Activity Not available.
SPECI KILN 021334Z AUTO 14010KT 10SM -RA FEW050 FEW090 SCT110 19/18 A2993 RMK AO2 LTG DSNT SE P0004 T01890178

More Conditions Fewer Conditions

Pressure 29.93 in
Visibility 10.0 miles
Clouds Few 5000 ft
Few 9000 ft
Scattered Clouds 11000 ft
Dew Point 66 °F
Humidity 99%
Rainfall 0.11 in
Snow Depth Not available.
UV 2 out of 12
Pollen 2.80 out of 12
Air Quality Not available.
Flu Activity Not available.
SPECI KILN 021334Z AUTO 14010KT 10SM -RA FEW050 FEW090 SCT110 19/18 A2993 RMK AO2 LTG DSNT SE P0004 T01890178

More Conditions Fewer Conditions

10-Day Weather Forecast

Almanac

Astronomy

Sep. 02, 2014 Rise Set
Actual Time 7:03 AM EDT 8:03 PM EDT
Civil Twilight 6:36 AM EDT 8:31 PM EDT
Nautical Twilight 6:03 AM EDT 9:03 PM EDT
Astronomical Twilight 5:29 AM EDT 9:37 PM EDT
Moon 2:44 PM EDT 12:07 AM EDT
Length of Visible Light 13h 54m
Length of Day
12h 59m
Tomorrow will be 2m 29s shorter.
First Quarter, 51% of the Moon is Illuminated
Today
First Quarter
Sep 8
Full
Sep 15
Last Quarter
Sep 24
New
Oct 1
First Quarter

Today's Extremes

State Highs State Lows

Community

WunderPhotos

Upload Photos

1,749,656 photos uploaded!

Nearby

Snow Depth

Station Depth Elevation
No new snow has been reported.

Earthquake Activity

City Distance Mag. Time & Date
No recent earthquake activity has been reported nearby.
Minimum magnitude displayed is 2.5.

Coastal Water Temperatures

Place Temperature
No Stations Reporting

Nearby Weather Stations